createdAt,value
2018-04-08T00:01:01.017Z,93998.33
2018-04-08T00:03:27.405Z,94001.86
2018-04-08T00:05:53.738Z,93992.30
2018-04-08T00:08:20.097Z,94003.16
2018-04-08T00:10:46.413Z,93992.91
2018-04-08T00:13:12.846Z,93994.78
2018-04-08T00:15:39.306Z,93994.77
2018-04-08T00:18:05.726Z,93999.98
2018-04-08T00:20:32.120Z,94000.81
2018-04-08T00:22:58.506Z,93993.75
2018-04-08T00:25:24.906Z,93996.55
2018-04-08T00:27:51.298Z,94001.13
2018-04-08T00:30:17.957Z,93998.08
2018-04-08T00:32:44.310Z,93998.09
2018-04-08T00:35:10.864Z,94000.16
2018-04-08T00:37:37.234Z,93996.50
2018-04-08T00:40:03.645Z,93995.06
2018-04-08T00:42:30.047Z,94004.51
2018-04-08T00:44:56.441Z,94003.41
2018-04-08T00:47:22.903Z,94001.81
2018-04-08T00:49:49.285Z,94002.62
2018-04-08T00:52:15.787Z,93993.30
2018-04-08T00:54:42.320Z,93987.63
2018-04-08T00:57:08.798Z,93989.79
2018-04-08T00:59:35.209Z,93996.00
2018-04-08T01:02:01.551Z,94004.90
2018-04-08T01:04:28.090Z,93993.41
2018-04-08T01:06:54.495Z,93994.52
2018-04-08T01:09:20.902Z,93995.24
2018-04-08T01:11:47.341Z,94000.00
2018-04-08T01:14:13.776Z,94002.45
2018-04-08T01:16:40.252Z,93995.81
2018-04-08T01:19:06.638Z,94002.87
2018-04-08T01:21:33.062Z,93995.55
2018-04-08T01:23:59.502Z,93988.77
2018-04-08T01:26:25.928Z,93993.64
2018-04-08T01:28:52.409Z,93990.84
2018-04-08T01:31:18.784Z,93990.36
2018-04-08T01:33:45.231Z,93993.62
2018-04-08T01:36:11.684Z,93979.48
2018-04-08T01:38:38.043Z,93984.19
2018-04-08T01:41:04.447Z,93984.89
2018-04-08T01:43:30.952Z,93977.75
2018-04-08T01:45:57.295Z,93975.45
2018-04-08T01:48:23.703Z,93976.67
2018-04-08T01:50:50.109Z,93979.78
2018-04-08T01:53:16.526Z,93982.36
2018-04-08T01:55:42.881Z,93978.23
2018-04-08T01:58:09.316Z,93977.16
2018-04-08T02:00:35.663Z,93971.23
2018-04-08T02:03:02.006Z,93966.94
2018-04-08T02:05:28.416Z,93967.08
2018-04-08T02:07:54.845Z,93969.73
2018-04-08T02:10:21.292Z,93967.86
2018-04-08T02:12:47.681Z,93969.52
2018-04-08T02:15:14.025Z,93965.53
2018-04-08T02:17:40.323Z,93977.72
2018-04-08T02:20:06.732Z,93976.33
2018-04-08T02:22:33.125Z,93973.09
2018-04-08T02:24:59.570Z,93972.39
2018-04-08T02:27:25.953Z,93965.84
2018-04-08T02:29:52.326Z,93964.25
2018-04-08T02:32:18.644Z,93960.89
2018-04-08T02:34:45.101Z,93963.10
2018-04-08T02:37:11.479Z,93962.40
2018-04-08T02:39:37.933Z,93955.26
2018-04-08T02:42:04.275Z,93949.52
2018-04-08T02:44:30.650Z,93954.23
2018-04-08T02:46:56.958Z,93958.11
2018-04-08T02:49:23.390Z,93953.70
2018-04-08T02:51:49.732Z,93954.54
2018-04-08T02:54:16.143Z,93954.49
2018-04-08T02:56:42.548Z,93954.90
2018-04-08T02:59:08.889Z,93963.21
2018-04-08T03:01:35.232Z,93961.25
2018-04-08T03:04:01.762Z,93964.24
2018-04-08T03:06:28.113Z,93962.85
2018-04-08T03:08:54.457Z,93962.75
2018-04-08T03:11:20.841Z,93960.73
2018-04-08T03:13:47.186Z,93961.61
2018-04-08T03:16:13.534Z,93969.09
2018-04-08T03:18:39.959Z,93967.33
2018-04-08T03:21:06.395Z,93973.75
2018-04-08T03:23:32.725Z,93973.91
2018-04-08T03:25:59.092Z,93977.20
2018-04-08T03:28:25.482Z,93980.25
2018-04-08T03:30:51.838Z,93987.52
2018-04-08T03:33:18.183Z,93976.79
2018-04-08T03:35:44.600Z,93977.47
2018-04-08T03:38:10.999Z,93976.64
2018-04-08T03:40:37.439Z,93983.25
2018-04-08T03:43:03.796Z,93978.19
2018-04-08T03:45:30.170Z,93982.98
2018-04-08T03:47:56.549Z,93989.72
2018-04-08T03:50:22.908Z,93987.48
2018-04-08T03:52:49.240Z,93992.30
2018-04-08T03:55:15.774Z,93992.44
2018-04-08T03:57:42.117Z,93984.63
2018-04-08T04:00:08.502Z,93988.20
2018-04-08T04:02:35.045Z,93993.63
2018-04-08T04:05:02.629Z,93993.95
2018-04-08T04:07:29.300Z,94000.20
2018-04-08T04:09:55.689Z,93996.57
2018-04-08T04:12:22.086Z,94003.35
2018-04-08T04:14:48.562Z,94008.36
2018-04-08T04:17:15.018Z,94018.08
2018-04-08T04:19:53.747Z,94013.05
2018-04-08T04:22:32.507Z,94007.59
2018-04-08T04:25:11.012Z,94002.66
2018-04-08T04:27:37.680Z,94006.28
2018-04-08T04:30:04.154Z,94005.45
2018-04-08T04:32:30.547Z,94012.29
2018-04-08T04:34:57.012Z,94007.35
2018-04-08T04:37:23.430Z,94013.06
2018-04-08T04:39:49.776Z,94016.05
2018-04-08T04:42:16.231Z,94010.05
2018-04-08T04:44:42.874Z,94007.94
2018-04-08T04:47:09.259Z,94014.81
2018-04-08T04:49:35.610Z,94011.77
2018-04-08T04:52:01.996Z,94018.16
2018-04-08T04:54:28.687Z,94018.78
2018-04-08T04:56:55.387Z,94016.53
2018-04-08T04:59:21.807Z,94014.46
2018-04-08T05:01:48.303Z,94017.55
2018-04-08T05:04:14.828Z,94023.22
2018-04-08T05:06:41.238Z,94025.45
2018-04-08T05:09:07.594Z,94022.34
2018-04-08T05:11:33.987Z,94022.23
2018-04-08T05:14:00.531Z,94024.13
2018-04-08T05:16:26.963Z,94028.14
2018-04-08T05:18:53.357Z,94025.55
2018-04-08T05:21:19.818Z,94024.59
2018-04-08T05:23:46.265Z,94033.77
2018-04-08T05:26:12.751Z,94027.83
2018-04-08T05:28:39.182Z,94026.23
2018-04-08T05:31:05.595Z,94021.06
2018-04-08T05:33:31.932Z,94034.80
2018-04-08T05:36:00.237Z,94032.87
2018-04-08T05:38:27.739Z,94033.24
2018-04-08T05:40:54.948Z,94029.88
2018-04-08T05:43:21.418Z,94039.02
2018-04-08T05:45:47.790Z,94044.87
2018-04-08T05:48:14.372Z,94032.78
2018-04-08T05:50:40.915Z,94025.77
2018-04-08T05:53:07.320Z,94033.61
2018-04-08T05:55:33.751Z,94032.30
2018-04-08T05:58:00.508Z,94044.13
2018-04-08T06:00:26.987Z,94049.63
2018-04-08T06:02:53.565Z,94043.66
2018-04-08T06:05:20.374Z,94048.77
2018-04-08T06:07:47.160Z,94038.23
2018-04-08T06:10:13.693Z,94046.48
2018-04-08T06:12:40.265Z,94044.66
2018-04-08T06:15:07.009Z,94047.07
2018-04-08T06:17:35.539Z,94044.80
2018-04-08T06:20:02.345Z,94037.45
2018-04-08T06:22:29.220Z,94038.08
2018-04-08T06:24:55.986Z,94047.97
2018-04-08T06:27:22.786Z,94040.83
2018-04-08T06:29:49.333Z,94049.78
2018-04-08T06:32:17.204Z,94052.85
2018-04-08T06:34:44.251Z,94050.53
2018-04-08T06:37:10.791Z,94051.25
2018-04-08T06:39:37.311Z,94055.52
2018-04-08T06:42:03.821Z,94058.89
2018-04-08T06:44:30.324Z,94049.88
2018-04-08T06:46:56.825Z,94054.26
2018-04-08T06:49:23.664Z,94057.19
2018-04-08T06:51:50.275Z,94062.08
2018-04-08T06:54:16.748Z,94052.80
2018-04-08T06:56:43.267Z,94059.35
2018-04-08T06:59:09.669Z,94058.80
2018-04-08T07:01:36.156Z,94057.28
2018-04-08T07:04:02.935Z,94058.31
2018-04-08T07:06:29.391Z,94055.89
2018-04-08T07:08:55.882Z,94062.14
2018-04-08T07:11:22.463Z,94063.90
2018-04-08T07:13:49.611Z,94058.71
2018-04-08T07:16:16.426Z,94057.53
2018-04-08T07:18:42.977Z,94050.28
2018-04-08T07:21:10.103Z,94052.30
2018-04-08T07:23:36.842Z,94045.94
2018-04-08T07:26:04.179Z,94056.19
2018-04-08T07:28:30.664Z,94061.02
2018-04-08T07:30:57.149Z,94055.61
2018-04-08T07:33:23.736Z,94057.34
2018-04-08T07:35:50.198Z,94052.75
2018-04-08T07:38:16.704Z,94046.64
2018-04-08T07:40:43.192Z,94039.88
2018-04-08T07:43:09.835Z,94040.75
2018-04-08T07:45:36.687Z,94042.65
2018-04-08T07:48:03.244Z,94046.88
2018-04-08T07:50:29.821Z,94049.55
2018-04-08T07:52:56.422Z,94044.94
2018-04-08T07:55:25.303Z,94048.39
2018-04-08T07:57:52.219Z,94046.19
2018-04-08T08:00:18.953Z,94044.31
2018-04-08T08:02:45.495Z,94039.95
2018-04-08T08:05:12.338Z,94034.97
2018-04-08T08:07:39.033Z,94030.83
2018-04-08T08:10:05.791Z,94028.36
2018-04-08T08:12:32.866Z,94025.78
2018-04-08T08:14:59.572Z,94024.13
2018-04-08T08:17:26.175Z,94024.55
2018-04-08T08:19:53.012Z,94023.63
2018-04-08T08:22:20.325Z,94017.46
2018-04-08T08:24:46.933Z,94010.34
2018-04-08T08:27:13.419Z,94007.59
2018-04-08T08:29:41.923Z,94011.31
2018-04-08T08:32:08.598Z,94004.13
2018-04-08T08:34:35.173Z,94006.77
2018-04-08T08:37:02.350Z,94009.81
2018-04-08T08:39:29.346Z,94006.30
2018-04-08T08:41:55.884Z,94002.95
2018-04-08T08:44:22.492Z,93998.77
2018-04-08T08:46:50.091Z,93996.48
2018-04-08T08:49:16.625Z,93997.64
2018-04-08T08:51:43.110Z,93993.61
2018-04-08T08:54:09.555Z,93987.58
2018-04-08T08:56:36.245Z,93986.52
2018-04-08T08:59:03.042Z,93982.73
2018-04-08T09:01:29.638Z,93991.97
2018-04-08T09:03:56.454Z,93983.83
2018-04-08T09:06:22.910Z,93984.77
2018-04-08T09:08:49.471Z,93979.23
2018-04-08T09:11:15.893Z,93979.05
2018-04-08T09:13:42.408Z,93979.13
2018-04-08T09:16:09.219Z,93975.73
2018-04-08T09:18:35.744Z,93975.80
2018-04-08T09:24:13.595Z,93962.27
2018-04-08T09:26:40.344Z,93956.31
2018-04-08T09:29:06.842Z,93962.05
2018-04-08T09:31:33.537Z,93950.70
2018-04-08T09:34:00.418Z,93957.09
2018-04-08T09:36:27.122Z,93941.84
2018-04-08T09:38:53.493Z,93939.94
2018-04-08T09:41:20.495Z,93946.46
2018-04-08T09:43:46.986Z,93938.61
2018-04-08T09:46:13.375Z,93937.59
2018-04-08T09:48:39.873Z,93936.62
2018-04-08T09:51:06.663Z,93919.84
2018-04-08T09:53:33.982Z,93920.06
2018-04-08T09:56:00.621Z,93928.37
2018-04-08T09:58:27.805Z,93923.78
2018-04-08T10:01:14.058Z,93909.49
2018-04-08T10:03:49.008Z,93909.20
2018-04-08T10:06:15.611Z,93905.03
2018-04-08T10:08:42.524Z,93896.41
2018-04-08T10:11:09.120Z,93904.75
2018-04-08T10:13:35.649Z,93891.75
2018-04-08T10:16:02.459Z,93885.58
2018-04-08T10:18:28.961Z,93890.48
2018-04-08T10:20:55.522Z,93885.98
2018-04-08T10:23:22.143Z,93886.47
2018-04-08T10:25:48.674Z,93880.76
2018-04-08T10:28:15.328Z,93881.34
2018-04-08T10:30:42.012Z,93878.39
2018-04-08T10:33:08.381Z,93879.98
2018-04-08T10:35:34.902Z,93870.82
2018-04-08T10:38:01.406Z,93878.08
2018-04-08T10:40:28.121Z,93879.87
2018-04-08T10:42:54.562Z,93869.61
2018-04-08T10:45:21.003Z,93863.78
2018-04-08T10:47:47.596Z,93872.92
2018-04-08T10:50:14.219Z,93865.91
2018-04-08T10:52:41.351Z,93865.04
2018-04-08T10:55:08.919Z,93860.66
2018-04-08T10:57:35.961Z,93851.45
2018-04-08T11:00:02.776Z,93848.55
2018-04-08T11:02:30.103Z,93848.11
2018-04-08T11:04:56.653Z,93854.52
2018-04-08T11:07:24.092Z,93863.65
2018-04-08T11:09:50.698Z,93835.16
2018-04-08T11:12:17.806Z,93832.84
2018-04-08T11:14:44.425Z,93833.47
2018-04-08T11:17:10.884Z,93837.23
2018-04-08T11:19:37.465Z,93834.42
2018-04-08T11:22:04.249Z,93827.42
2018-04-08T11:24:30.818Z,93826.02
2018-04-08T11:26:57.449Z,93834.52
2018-04-08T11:29:23.926Z,93817.15
2018-04-08T11:31:50.291Z,93821.88
2018-04-08T11:34:16.838Z,93821.93
2018-04-08T11:36:44.944Z,93816.90
2018-04-08T11:39:11.383Z,93811.95
2018-04-08T11:41:37.855Z,93810.11
2018-04-08T11:44:04.759Z,93833.66
2018-04-08T11:46:31.263Z,93812.97
2018-04-08T11:48:57.684Z,93802.38
2018-04-08T11:51:24.535Z,93810.19
2018-04-08T11:53:51.200Z,93811.63
2018-04-08T11:56:17.662Z,93797.53
2018-04-08T11:58:44.200Z,93784.06
2018-04-08T12:01:10.792Z,93810.05
2018-04-08T12:03:37.486Z,93796.39
2018-04-08T12:06:04.140Z,93794.66
2018-04-08T12:08:30.729Z,93793.58
2018-04-08T12:10:57.562Z,93779.47
2018-04-08T12:13:24.212Z,93787.28
2018-04-08T12:15:50.801Z,93787.56
2018-04-08T12:18:17.297Z,93782.49
2018-04-08T12:20:43.741Z,93771.30
2018-04-08T12:23:10.591Z,93767.88
2018-04-08T12:25:37.135Z,93767.97
2018-04-08T12:28:04.489Z,93763.80
2018-04-08T12:30:31.198Z,93788.53
2018-04-08T12:32:57.702Z,93760.65
2018-04-08T12:35:24.087Z,93796.46
2018-04-08T12:37:50.584Z,93758.87
2018-04-08T12:40:17.113Z,93762.40
2018-04-08T12:42:43.698Z,93745.88
2018-04-08T12:45:10.912Z,93738.80
2018-04-08T12:47:37.498Z,93748.04
2018-04-08T12:50:04.154Z,93736.80
2018-04-08T12:52:30.906Z,93748.60
2018-04-08T12:54:58.137Z,93727.08
2018-04-08T12:57:24.688Z,93729.70
2018-04-08T12:59:51.157Z,93732.49
2018-04-08T13:02:17.839Z,93729.75
2018-04-08T13:04:44.729Z,93732.05
2018-04-08T13:07:11.288Z,93734.08
2018-04-08T13:09:38.952Z,93714.30
2018-04-08T13:12:05.487Z,93722.47
2018-04-08T13:14:32.645Z,93712.11
2018-04-08T13:16:59.327Z,93693.38
2018-04-08T13:19:26.120Z,93721.02
2018-04-08T13:21:52.983Z,93717.07
2018-04-08T13:24:19.473Z,93696.66
2018-04-08T13:26:46.147Z,93699.78
2018-04-08T13:29:12.770Z,93693.30
2018-04-08T13:31:39.221Z,93704.83
2018-04-08T13:34:05.646Z,93724.71
2018-04-08T13:36:32.223Z,93706.56
2018-04-08T13:38:58.864Z,93689.02
2018-04-08T13:41:25.353Z,93702.54
2018-04-08T13:43:51.843Z,93698.50
2018-04-08T13:46:18.312Z,93723.39
2018-04-08T13:48:44.676Z,93697.20
2018-04-08T13:51:11.192Z,93699.83
2018-04-08T13:53:37.992Z,93700.23
2018-04-08T13:56:04.512Z,93703.59
2018-04-08T13:58:31.058Z,93707.69
2018-04-08T14:00:57.860Z,93706.11
2018-04-08T14:03:24.539Z,93710.05
2018-04-08T14:05:51.081Z,93700.39
2018-04-08T14:08:17.600Z,93701.44
2018-04-08T14:10:44.067Z,93697.20
2018-04-08T14:13:10.689Z,93703.74
2018-04-08T14:15:37.225Z,93705.70
2018-04-08T14:18:03.910Z,93707.23
2018-04-08T14:20:30.424Z,93698.46
2018-04-08T14:22:57.019Z,93709.93
2018-04-08T14:25:23.639Z,93695.73
2018-04-08T14:27:50.164Z,93698.81
2018-04-08T14:30:16.697Z,93708.72
2018-04-08T14:32:43.104Z,93693.80
2018-04-08T14:35:09.940Z,93697.22
2018-04-08T14:37:36.491Z,93706.04
2018-04-08T14:40:04.086Z,93689.09
2018-04-08T14:42:31.257Z,93698.73
2018-04-08T14:44:58.443Z,93696.27
2018-04-08T14:47:25.230Z,93695.37
2018-04-08T14:49:53.963Z,93694.77
2018-04-08T14:52:21.021Z,93688.38
2018-04-08T14:54:47.713Z,93698.77
2018-04-08T14:57:14.292Z,93690.05
2018-04-08T14:59:40.807Z,93694.19
2018-04-08T15:02:07.980Z,93686.25
2018-04-08T15:04:34.833Z,93690.81
2018-04-08T15:07:01.314Z,93686.00
2018-04-08T15:09:28.221Z,93698.17
2018-04-08T15:11:55.090Z,93688.95
2018-04-08T15:14:21.701Z,93697.28
2018-04-08T15:16:48.302Z,93702.55
2018-04-08T15:19:14.920Z,93691.94
2018-04-08T15:21:41.457Z,93697.47
2018-04-08T15:24:08.213Z,93690.94
2018-04-08T15:26:34.745Z,93689.30
2018-04-08T15:29:01.497Z,93685.99
2018-04-08T15:31:27.917Z,93680.34
2018-04-08T15:33:54.554Z,93696.06
2018-04-08T15:36:21.280Z,93688.91
2018-04-08T15:38:47.867Z,93686.84
2018-04-08T15:41:14.710Z,93689.75
2018-04-08T15:43:41.296Z,93686.90
2018-04-08T15:46:07.822Z,93696.15
2018-04-08T15:48:34.515Z,93692.45
2018-04-08T15:51:01.063Z,93693.30
2018-04-08T15:53:27.507Z,93696.28
2018-04-08T15:55:54.266Z,93693.04
2018-04-08T15:58:21.115Z,93702.31
2018-04-08T16:00:48.589Z,93694.30
2018-04-08T16:03:16.834Z,93698.25
2018-04-08T16:05:43.662Z,93696.33
2018-04-08T16:08:10.074Z,93694.81
2018-04-08T16:10:36.708Z,93695.28
2018-04-08T16:13:03.346Z,93690.66
2018-04-08T16:15:29.812Z,93688.97
2018-04-08T16:17:56.477Z,93694.45
2018-04-08T16:20:23.870Z,93689.07
2018-04-08T16:22:50.962Z,93690.13
2018-04-08T16:25:17.411Z,93691.13
2018-04-08T16:27:43.970Z,93694.39
2018-04-08T16:30:10.651Z,93697.52
2018-04-08T16:32:37.326Z,93692.84
2018-04-08T16:35:03.970Z,93695.25
2018-04-08T16:37:31.048Z,93698.78
2018-04-08T16:39:57.644Z,93708.92
2018-04-08T16:42:24.351Z,93698.09
2018-04-08T16:44:50.704Z,93703.89
2018-04-08T16:47:17.309Z,93703.66
2018-04-08T16:49:43.750Z,93704.84
2018-04-08T16:52:10.109Z,93708.33
2018-04-08T16:54:36.637Z,93707.39
2018-04-08T16:57:03.321Z,93718.09
2018-04-08T16:59:29.837Z,93716.96
2018-04-08T17:01:56.836Z,93708.06
2018-04-08T17:04:23.376Z,93715.80
2018-04-08T17:06:49.923Z,93716.66
2018-04-08T17:09:16.422Z,93714.53
2018-04-08T17:11:43.077Z,93721.73
2018-04-08T17:14:09.851Z,93723.10
2018-04-08T17:16:36.392Z,93719.05
2018-04-08T17:19:03.777Z,93732.09
2018-04-08T17:21:30.401Z,93723.16
2018-04-08T17:23:56.863Z,93735.47
2018-04-08T17:26:23.546Z,93734.39
2018-04-08T17:28:51.467Z,93729.02
2018-04-08T17:31:18.343Z,93723.34
2018-04-08T17:33:45.472Z,93741.11
2018-04-08T17:36:12.211Z,93725.87
2018-04-08T17:38:39.700Z,93729.33
2018-04-08T17:41:06.405Z,93730.70
2018-04-08T17:43:34.312Z,93743.59
2018-04-08T17:46:00.939Z,93752.97
2018-04-08T17:48:27.433Z,93751.63
2018-04-08T17:50:53.813Z,93747.66
2018-04-08T17:53:20.543Z,93764.58
2018-04-08T17:55:47.224Z,93751.72
2018-04-08T17:58:13.717Z,93763.83
2018-04-08T18:00:40.677Z,93766.81
2018-04-08T18:03:07.503Z,93767.31
2018-04-08T18:05:34.025Z,93766.80
2018-04-08T18:08:00.553Z,93765.56
2018-04-08T18:10:27.059Z,93772.13
2018-04-08T18:13:00.421Z,93783.05
2018-04-08T18:15:29.083Z,93786.33
2018-04-08T18:17:55.534Z,93780.53
2018-04-08T18:20:24.186Z,93785.83
2018-04-08T18:22:51.388Z,93789.91
2018-04-08T18:25:18.348Z,93794.55
2018-04-08T18:27:44.913Z,93779.02
2018-04-08T18:30:11.523Z,93789.48
2018-04-08T18:32:38.066Z,93790.38
2018-04-08T18:35:04.521Z,93789.64
2018-04-08T18:37:31.420Z,93798.66
2018-04-08T18:40:02.521Z,93797.44
2018-04-08T18:42:30.529Z,93803.06
2018-04-08T18:44:56.975Z,93803.11
2018-04-08T18:47:23.444Z,93797.72
2018-04-08T18:49:50.012Z,93808.25
2018-04-08T18:52:16.427Z,93803.63
2018-04-08T18:54:42.907Z,93796.50
2018-04-08T18:57:09.506Z,93799.66
2018-04-08T18:59:36.328Z,93790.01
2018-04-08T19:02:03.043Z,93800.75
2018-04-08T19:04:30.307Z,93800.52
2018-04-08T19:06:57.184Z,93800.33
2018-04-08T19:09:23.916Z,93795.25
2018-04-08T19:11:50.731Z,93788.27
2018-04-08T19:14:19.300Z,93789.55
2018-04-08T19:16:51.007Z,93798.55
2018-04-08T19:19:22.008Z,93788.88
2018-04-08T19:21:48.989Z,93786.52
2018-04-08T19:24:19.534Z,93793.33
2018-04-08T19:26:47.277Z,93791.16
2018-04-08T19:29:13.951Z,93787.27
2018-04-08T19:31:40.464Z,93785.99
2018-04-08T19:34:07.127Z,93788.33
2018-04-08T19:36:33.847Z,93790.53
2018-04-08T19:39:00.335Z,93798.59
2018-04-08T19:41:26.829Z,93804.56
2018-04-08T19:43:53.559Z,93799.67
2018-04-08T19:46:20.174Z,93804.75
2018-04-08T19:48:46.925Z,93798.29
2018-04-08T19:51:13.555Z,93802.44
2018-04-08T19:53:40.170Z,93804.56
2018-04-08T19:56:06.910Z,93804.94
2018-04-08T19:58:33.490Z,93806.70
2018-04-08T20:00:59.993Z,93809.12
2018-04-08T20:03:26.578Z,93804.55
2018-04-08T20:05:53.065Z,93815.55
2018-04-08T20:08:19.845Z,93807.72
2018-04-08T20:10:46.843Z,93815.12
2018-04-08T20:13:13.413Z,93806.95
2018-04-08T20:15:40.382Z,93807.60
2018-04-08T20:18:08.292Z,93816.95
2018-04-08T20:20:36.452Z,93812.20
2018-04-08T20:23:04.055Z,93818.02
2018-04-08T20:25:31.858Z,93811.89
2018-04-08T20:27:58.514Z,93807.84
2018-04-08T20:30:25.008Z,93817.47
2018-04-08T20:32:51.579Z,93815.87
2018-04-08T20:35:18.171Z,93820.89
2018-04-08T20:37:44.925Z,93816.59
2018-04-08T20:40:11.420Z,93816.17
2018-04-08T20:42:37.925Z,93815.81
2018-04-08T20:45:04.328Z,93818.71
2018-04-08T20:47:30.977Z,93821.75
2018-04-08T20:49:57.411Z,93820.70
2018-04-08T20:52:23.839Z,93814.73
2018-04-08T20:54:50.287Z,93822.98
2018-04-08T20:57:18.349Z,93822.66
2018-04-08T20:59:45.505Z,93821.02
2018-04-08T21:02:12.085Z,93821.17
2018-04-08T21:04:38.693Z,93819.89
2018-04-08T21:07:05.275Z,93821.36
2018-04-08T21:09:31.753Z,93815.48
2018-04-08T21:11:58.236Z,93817.61
2018-04-08T21:14:24.591Z,93817.95
2018-04-08T21:16:51.049Z,93817.43
2018-04-08T21:19:17.657Z,93825.23
2018-04-08T21:21:44.214Z,93819.06
2018-04-08T21:24:10.915Z,93812.81
2018-04-08T21:26:37.371Z,93819.23
2018-04-08T21:29:03.865Z,93815.55
2018-04-08T21:31:30.278Z,93810.70
2018-04-08T21:33:56.706Z,93813.55
2018-04-08T21:36:23.248Z,93809.82
2018-04-08T21:38:49.706Z,93811.52
2018-04-08T21:41:16.242Z,93818.88
2018-04-08T21:43:42.965Z,93819.70
2018-04-08T21:46:09.854Z,93818.58
2018-04-08T21:48:37.162Z,93819.63
2018-04-08T21:51:03.766Z,93814.62
2018-04-08T21:53:30.343Z,93815.08
2018-04-08T21:55:57.070Z,93813.00
2018-04-08T21:58:23.667Z,93812.66
2018-04-08T22:00:50.798Z,93815.52
2018-04-08T22:03:17.687Z,93811.38
2018-04-08T22:05:44.965Z,93808.83
2018-04-08T22:08:11.827Z,93816.44
2018-04-08T22:10:39.176Z,93817.98
2018-04-08T22:13:06.128Z,93817.63
2018-04-08T22:15:32.573Z,93811.22
2018-04-08T22:17:59.146Z,93807.99
2018-04-08T22:20:25.752Z,93809.12
2018-04-08T22:22:52.220Z,93797.25
2018-04-08T22:25:18.684Z,93797.68
2018-04-08T22:27:45.319Z,93798.19
2018-04-08T22:30:11.831Z,93800.05
2018-04-08T22:32:38.329Z,93795.99
2018-04-08T22:35:04.870Z,93790.97
2018-04-08T22:37:31.329Z,93790.16
2018-04-08T22:39:57.737Z,93787.38
2018-04-08T22:42:24.236Z,93787.31
2018-04-08T22:44:50.591Z,93781.91
2018-04-08T22:47:17.482Z,93780.38
2018-04-08T22:49:44.520Z,93778.19
2018-04-08T22:52:11.436Z,93778.19
2018-04-08T22:54:39.308Z,93777.50
2018-04-08T22:57:06.578Z,93771.49
2018-04-08T22:59:33.972Z,93767.84
2018-04-08T23:02:01.526Z,93773.45
2018-04-08T23:04:28.084Z,93771.44
2018-04-08T23:06:55.660Z,93771.57
2018-04-08T23:09:22.154Z,93770.12
2018-04-08T23:11:48.607Z,93763.91
2018-04-08T23:14:14.994Z,93761.38
2018-04-08T23:16:41.589Z,93760.73
2018-04-08T23:19:07.931Z,93761.39
2018-04-08T23:21:34.354Z,93761.43
2018-04-08T23:24:00.862Z,93764.27
2018-04-08T23:26:27.435Z,93765.52
2018-04-08T23:28:53.838Z,93762.45
2018-04-08T23:31:20.211Z,93762.64
2018-04-08T23:33:46.594Z,93759.03
2018-04-08T23:36:13.034Z,93759.34
2018-04-08T23:38:39.418Z,93757.59
2018-04-08T23:41:05.746Z,93759.03
2018-04-08T23:43:32.408Z,93760.00
2018-04-08T23:45:58.953Z,93757.92
2018-04-08T23:48:25.363Z,93758.38
2018-04-08T23:50:51.872Z,93759.96
2018-04-08T23:53:18.434Z,93759.03
2018-04-08T23:55:44.932Z,93757.83
2018-04-08T23:58:11.524Z,93753.73
